Terminal Aerodrome Forecast
Issued by NWS

Home | Current Version | Previous Version | Text Only | Print | Product List | Glossary On
Versions: 1 2 3 4 5 6 7 8 9 10 11 12 13 14 15 16 17
524
FTUS46 KLOX 291459 AAA
TAFVNY
TAF AMD
KVNY 291459Z 2915/3012 02015G25KT P6SM SKC WS010/06030KT
     FM291900 02015G20KT P6SM SKC
     FM292200 35010KT P6SM SKC
     FM300200 36006KT P6SM SKC=

USA.gov is the U.S. government's official web portal to all federal, state and local government web resources and services.